sensor_id;sensor_type;location;lat;lon;timestamp;pressure;altitude;pressure_sealevel;temperature;humidity
73429;BME280;61643;49.564;17.412;2022-08-25T00:01:58;98509.13;;;20.86;86.40
73429;BME280;61643;49.564;17.412;2022-08-25T00:04:25;98507.47;;;20.77;86.84
73429;BME280;61643;49.564;17.412;2022-08-25T00:06:51;98507.44;;;20.68;86.94
73429;BME280;61643;49.564;17.412;2022-08-25T00:09:19;98506.56;;;20.59;87.63
73429;BME280;61643;49.564;17.412;2022-08-25T00:11:45;98507.97;;;20.48;88.14
73429;BME280;61643;49.564;17.412;2022-08-25T00:14:16;98501.66;;;20.39;88.69
73429;BME280;61643;49.564;17.412;2022-08-25T00:16:42;98497.75;;;20.31;89.45
73429;BME280;61643;49.564;17.412;2022-08-25T00:19:11;98491.91;;;20.24;89.74
73429;BME280;61643;49.564;17.412;2022-08-25T00:21:38;98484.63;;;20.20;89.73
73429;BME280;61643;49.564;17.412;2022-08-25T00:24:05;98487.34;;;20.20;89.58
73429;BME280;61643;49.564;17.412;2022-08-25T00:26:30;98482.81;;;20.15;89.41
73429;BME280;61643;49.564;17.412;2022-08-25T00:28:56;98482.47;;;20.08;89.95
73429;BME280;61643;49.564;17.412;2022-08-25T00:31:22;98484.78;;;20.14;89.63
73429;BME280;61643;49.564;17.412;2022-08-25T00:33:48;98491.47;;;20.08;89.46
73429;BME280;61643;49.564;17.412;2022-08-25T00:36:14;98481.59;;;19.99;90.15
73429;BME280;61643;49.564;17.412;2022-08-25T00:38:42;98478.19;;;19.93;90.48
73429;BME280;61643;49.564;17.412;2022-08-25T00:41:10;98481.53;;;19.90;90.38
73429;BME280;61643;49.564;17.412;2022-08-25T00:43:48;98473.97;;;19.87;90.79
73429;BME280;61643;49.564;17.412;2022-08-25T00:46:17;98475.88;;;19.87;90.58
73429;BME280;61643;49.564;17.412;2022-08-25T00:48:44;98478.31;;;19.88;90.29
73429;BME280;61643;49.564;17.412;2022-08-25T00:51:14;98476.69;;;19.87;90.04
73429;BME280;61643;49.564;17.412;2022-08-25T00:53:41;98472.97;;;19.83;90.55
73429;BME280;61643;49.564;17.412;2022-08-25T00:56:07;98473.13;;;19.78;90.58
73429;BME280;61643;49.564;17.412;2022-08-25T00:58:34;98475.16;;;19.73;90.91
73429;BME280;61643;49.564;17.412;2022-08-25T01:01:00;98478.59;;;19.64;91.02
73429;BME280;61643;49.564;17.412;2022-08-25T01:03:28;98470.56;;;19.59;91.43
73429;BME280;61643;49.564;17.412;2022-08-25T01:05:54;98474.69;;;19.79;90.48
73429;BME280;61643;49.564;17.412;2022-08-25T01:08:23;98464.72;;;19.75;90.73
73429;BME280;61643;49.564;17.412;2022-08-25T01:10:51;98470.59;;;19.68;90.80
73429;BME280;61643;49.564;17.412;2022-08-25T01:13:20;98470.94;;;19.67;90.83
73429;BME280;61643;49.564;17.412;2022-08-25T01:15:49;98479.75;;;19.63;90.84
73429;BME280;61643;49.564;17.412;2022-08-25T01:18:17;98470.56;;;19.59;90.98
73429;BME280;61643;49.564;17.412;2022-08-25T01:20:47;98478.75;;;19.59;90.96
73429;BME280;61643;49.564;17.412;2022-08-25T01:23:12;98481.38;;;19.51;91.27
73429;BME280;61643;49.564;17.412;2022-08-25T01:28:28;98460.16;;;19.48;91.25
73429;BME280;61643;49.564;17.412;2022-08-25T01:30:54;98472.53;;;19.45;91.10
73429;BME280;61643;49.564;17.412;2022-08-25T01:33:19;98462.09;;;19.34;91.79
73429;BME280;61643;49.564;17.412;2022-08-25T01:35:45;98463.09;;;19.38;91.35
73429;BME280;61643;49.564;17.412;2022-08-25T01:38:12;98476.44;;;19.39;91.33
73429;BME280;61643;49.564;17.412;2022-08-25T01:40:39;98466.31;;;19.40;90.94
73429;BME280;61643;49.564;17.412;2022-08-25T01:45:41;98467.47;;;19.39;90.96
73429;BME280;61643;49.564;17.412;2022-08-25T01:48:08;98467.66;;;19.29;90.90
73429;BME280;61643;49.564;17.412;2022-08-25T01:50:34;98463.84;;;19.30;91.05
73429;BME280;61643;49.564;17.412;2022-08-25T01:53:07;98464.31;;;19.32;90.96
73429;BME280;61643;49.564;17.412;2022-08-25T01:55:32;98454.59;;;19.53;89.60
73429;BME280;61643;49.564;17.412;2022-08-25T01:58:35;98458.13;;;19.53;89.82
73429;BME280;61643;49.564;17.412;2022-08-25T02:01:04;98451.97;;;19.48;90.01
73429;BME280;61643;49.564;17.412;2022-08-25T02:03:29;98458.13;;;19.40;90.23
73429;BME280;61643;49.564;17.412;2022-08-25T02:05:56;98458.28;;;19.35;90.28
73429;BME280;61643;49.564;17.412;2022-08-25T02:08:22;98452.63;;;19.31;90.18
73429;BME280;61643;49.564;17.412;2022-08-25T02:10:49;98454.97;;;19.24;90.62
73429;BME280;61643;49.564;17.412;2022-08-25T02:13:15;98454.03;;;19.29;89.92
73429;BME280;61643;49.564;17.412;2022-08-25T02:15:43;98457.34;;;19.53;88.52
73429;BME280;61643;49.564;17.412;2022-08-25T02:18:09;98456.34;;;19.49;88.83
73429;BME280;61643;49.564;17.412;2022-08-25T02:20:36;98455.34;;;19.45;89.12
73429;BME280;61643;49.564;17.412;2022-08-25T02:23:02;98450.75;;;19.40;89.42
73429;BME280;61643;49.564;17.412;2022-08-25T02:25:29;98448.06;;;19.27;89.04
73429;BME280;61643;49.564;17.412;2022-08-25T02:27:54;98442.72;;;19.35;88.78
73429;BME280;61643;49.564;17.412;2022-08-25T02:30:20;98441.38;;;19.33;88.95
73429;BME280;61643;49.564;17.412;2022-08-25T02:32:45;98443.69;;;19.39;88.62
73429;BME280;61643;49.564;17.412;2022-08-25T02:35:11;98436.91;;;19.37;88.56
73429;BME280;61643;49.564;17.412;2022-08-25T02:37:36;98444.63;;;19.35;88.53
73429;BME280;61643;49.564;17.412;2022-08-25T02:40:03;98436.91;;;19.37;88.82
73429;BME280;61643;49.564;17.412;2022-08-25T02:42:29;98441.06;;;19.48;88.01
73429;BME280;61643;49.564;17.412;2022-08-25T02:44:54;98432.94;;;19.56;87.55
73429;BME280;61643;49.564;17.412;2022-08-25T02:47:20;98440.66;;;19.41;88.22
73429;BME280;61643;49.564;17.412;2022-08-25T02:49:46;98441.53;;;19.50;87.73
73429;BME280;61643;49.564;17.412;2022-08-25T02:52:13;98436.50;;;19.57;87.04
73429;BME280;61643;49.564;17.412;2022-08-25T02:54:38;98435.88;;;19.60;86.94
73429;BME280;61643;49.564;17.412;2022-08-25T02:57:04;98435.44;;;19.67;86.57
73429;BME280;61643;49.564;17.412;2022-08-25T02:59:29;98445.84;;;19.42;87.66
73429;BME280;61643;49.564;17.412;2022-08-25T03:01:54;98447.16;;;19.31;88.22
73429;BME280;61643;49.564;17.412;2022-08-25T03:04:20;98438.25;;;19.26;88.42
73429;BME280;61643;49.564;17.412;2022-08-25T03:06:46;98439.59;;;19.14;88.65
73429;BME280;61643;49.564;17.412;2022-08-25T03:09:12;98442.47;;;19.09;88.79
73429;BME280;61643;49.564;17.412;2022-08-25T03:11:38;98438.41;;;19.21;88.22
73429;BME280;61643;49.564;17.412;2022-08-25T03:14:04;98432.03;;;19.11;88.48
73429;BME280;61643;49.564;17.412;2022-08-25T03:16:30;98448.50;;;19.06;89.14
73429;BME280;61643;49.564;17.412;2022-08-25T03:18:56;98439.25;;;18.94;89.34
73429;BME280;61643;49.564;17.412;2022-08-25T03:21:21;98443.03;;;19.06;88.82
73429;BME280;61643;49.564;17.412;2022-08-25T03:23:47;98448.94;;;19.13;88.24
73429;BME280;61643;49.564;17.412;2022-08-25T03:26:12;98450.81;;;19.27;88.05
73429;BME280;61643;49.564;17.412;2022-08-25T03:28:57;98452.91;;;19.30;87.90
73429;BME280;61643;49.564;17.412;2022-08-25T03:31:24;98450.72;;;19.18;88.35
73429;BME280;61643;49.564;17.412;2022-08-25T03:33:53;98454.38;;;19.13;88.58
73429;BME280;61643;49.564;17.412;2022-08-25T03:36:18;98453.00;;;19.02;88.74
73429;BME280;61643;49.564;17.412;2022-08-25T03:38:43;98450.66;;;18.96;89.32
73429;BME280;61643;49.564;17.412;2022-08-25T03:41:32;98453.69;;;18.94;88.77
73429;BME280;61643;49.564;17.412;2022-08-25T03:43:58;98453.72;;;18.81;89.41
73429;BME280;61643;49.564;17.412;2022-08-25T03:46:27;98451.38;;;18.74;89.67
73429;BME280;61643;49.564;17.412;2022-08-25T03:48:53;98449.25;;;18.71;89.78
73429;BME280;61643;49.564;17.412;2022-08-25T03:51:24;98442.31;;;18.65;89.75
73429;BME280;61643;49.564;17.412;2022-08-25T03:53:50;98447.41;;;18.39;91.03
73429;BME280;61643;49.564;17.412;2022-08-25T03:56:16;98443.78;;;18.44;90.68
73429;BME280;61643;49.564;17.412;2022-08-25T03:58:42;98441.34;;;18.42;91.08
73429;BME280;61643;49.564;17.412;2022-08-25T04:01:07;98450.13;;;18.39;91.16
73429;BME280;61643;49.564;17.412;2022-08-25T04:03:33;98451.06;;;18.48;91.08
73429;BME280;61643;49.564;17.412;2022-08-25T04:06:03;98444.59;;;18.44;91.23
73429;BME280;61643;49.564;17.412;2022-08-25T04:08:29;98442.59;;;18.77;89.96
73429;BME280;61643;49.564;17.412;2022-08-25T04:10:54;98432.59;;;18.86;89.14
73429;BME280;61643;49.564;17.412;2022-08-25T04:13:20;98433.56;;;19.04;88.57
73429;BME280;61643;49.564;17.412;2022-08-25T04:15:47;98435.81;;;19.02;88.42
73429;BME280;61643;49.564;17.412;2022-08-25T04:18:12;98431.16;;;19.02;88.46
73429;BME280;61643;49.564;17.412;2022-08-25T04:20:39;98431.56;;;19.09;88.28
73429;BME280;61643;49.564;17.412;2022-08-25T04:23:06;98429.31;;;19.11;87.65
73429;BME280;61643;49.564;17.412;2022-08-25T04:25:32;98430.81;;;19.17;87.64
73429;BME280;61643;49.564;17.412;2022-08-25T04:27:58;98435.06;;;19.24;86.88
73429;BME280;61643;49.564;17.412;2022-08-25T04:30:23;98433.91;;;19.25;87.25
73429;BME280;61643;49.564;17.412;2022-08-25T04:32:48;98440.75;;;19.36;86.50
73429;BME280;61643;49.564;17.412;2022-08-25T04:35:14;98433.91;;;19.38;86.10
73429;BME280;61643;49.564;17.412;2022-08-25T04:37:40;98440.38;;;19.42;85.84
73429;BME280;61643;49.564;17.412;2022-08-25T04:40:06;98436.91;;;19.50;85.62
73429;BME280;61643;49.564;17.412;2022-08-25T04:42:32;98439.34;;;19.74;84.43
73429;BME280;61643;49.564;17.412;2022-08-25T04:44:59;98434.50;;;19.71;84.49
73429;BME280;61643;49.564;17.412;2022-08-25T04:47:26;98437.00;;;19.90;83.63
73429;BME280;61643;49.564;17.412;2022-08-25T04:49:52;98429.91;;;19.80;83.92
73429;BME280;61643;49.564;17.412;2022-08-25T04:52:17;98431.00;;;20.01;83.23
73429;BME280;61643;49.564;17.412;2022-08-25T04:54:42;98427.63;;;20.04;83.22
73429;BME280;61643;49.564;17.412;2022-08-25T04:57:08;98439.81;;;19.98;83.29
73429;BME280;61643;49.564;17.412;2022-08-25T04:59:34;98433.16;;;20.13;82.25
73429;BME280;61643;49.564;17.412;2022-08-25T05:01:59;98436.94;;;20.26;82.08
73429;BME280;61643;49.564;17.412;2022-08-25T05:04:27;98432.97;;;20.32;81.92
73429;BME280;61643;49.564;17.412;2022-08-25T05:06:52;98436.41;;;20.46;81.47
73429;BME280;61643;49.564;17.412;2022-08-25T05:09:18;98440.47;;;20.57;81.68
73429;BME280;61643;49.564;17.412;2022-08-25T05:11:43;98438.91;;;20.73;80.82
73429;BME280;61643;49.564;17.412;2022-08-25T05:14:09;98427.94;;;20.73;81.07
73429;BME280;61643;49.564;17.412;2022-08-25T05:16:36;98433.00;;;20.88;80.44
73429;BME280;61643;49.564;17.412;2022-08-25T05:19:03;98428.63;;;20.87;78.68
73429;BME280;61643;49.564;17.412;2022-08-25T05:21:29;98436.84;;;20.79;79.69
73429;BME280;61643;49.564;17.412;2022-08-25T05:23:58;98430.25;;;20.80;80.03
73429;BME280;61643;49.564;17.412;2022-08-25T05:26:26;98433.16;;;20.83;80.99
73429;BME280;61643;49.564;17.412;2022-08-25T05:28:53;98433.63;;;20.85;81.03
73429;BME280;61643;49.564;17.412;2022-08-25T05:31:20;98416.13;;;21.03;79.80
73429;BME280;61643;49.564;17.412;2022-08-25T05:33:46;98424.34;;;21.03;79.81
73429;BME280;61643;49.564;17.412;2022-08-25T05:36:13;98410.66;;;21.03;79.71
73429;BME280;61643;49.564;17.412;2022-08-25T05:38:39;98420.66;;;21.08;80.24
73429;BME280;61643;49.564;17.412;2022-08-25T05:41:08;98410.19;;;21.01;81.92
73429;BME280;61643;49.564;17.412;2022-08-25T05:43:36;98414.72;;;21.15;80.67
73429;BME280;61643;49.564;17.412;2022-08-25T05:46:02;98416.34;;;21.16;80.75
73429;BME280;61643;49.564;17.412;2022-08-25T05:48:28;98412.78;;;21.24;80.70
73429;BME280;61643;49.564;17.412;2022-08-25T05:50:55;98413.75;;;21.36;80.20
73429;BME280;61643;49.564;17.412;2022-08-25T05:53:22;98411.34;;;21.52;78.98
73429;BME280;61643;49.564;17.412;2022-08-25T05:55:50;98408.09;;;21.67;78.57
73429;BME280;61643;49.564;17.412;2022-08-25T05:58:16;98405.72;;;21.40;79.04
73429;BME280;61643;49.564;17.412;2022-08-25T06:00:41;98414.41;;;21.59;79.54
73429;BME280;61643;49.564;17.412;2022-08-25T06:03:07;98403.47;;;21.59;81.01
73429;BME280;61643;49.564;17.412;2022-08-25T06:05:32;98408.09;;;21.67;80.33
73429;BME280;61643;49.564;17.412;2022-08-25T06:07:58;98403.78;;;21.66;79.70
73429;BME280;61643;49.564;17.412;2022-08-25T06:10:23;98407.28;;;21.75;79.60
73429;BME280;61643;49.564;17.412;2022-08-25T06:12:49;98414.69;;;21.83;79.09
73429;BME280;61643;49.564;17.412;2022-08-25T06:15:17;98414.03;;;21.86;80.02
73429;BME280;61643;49.564;17.412;2022-08-25T06:17:43;98422.41;;;21.90;80.44
73429;BME280;61643;49.564;17.412;2022-08-25T06:20:17;98428.56;;;21.87;78.55
73429;BME280;61643;49.564;17.412;2022-08-25T06:22:43;98425.66;;;21.83;79.23
73429;BME280;61643;49.564;17.412;2022-08-25T06:25:10;98436.47;;;21.80;79.32
73429;BME280;61643;49.564;17.412;2022-08-25T06:27:36;98434.53;;;21.80;78.67
73429;BME280;61643;49.564;17.412;2022-08-25T06:30:04;98434.38;;;21.77;79.24
73429;BME280;61643;49.564;17.412;2022-08-25T06:32:34;98441.78;;;21.76;79.32
73429;BME280;61643;49.564;17.412;2022-08-25T06:35:04;98431.78;;;21.80;79.36
73429;BME280;61643;49.564;17.412;2022-08-25T06:37:30;98440.47;;;21.99;80.36
73429;BME280;61643;49.564;17.412;2022-08-25T06:39:55;98447.22;;;22.11;78.17
73429;BME280;61643;49.564;17.412;2022-08-25T06:42:21;98444.41;;;22.36;78.83
73429;BME280;61643;49.564;17.412;2022-08-25T06:44:47;98444.53;;;22.48;77.52
73429;BME280;61643;49.564;17.412;2022-08-25T06:47:12;98443.03;;;22.60;77.63
73429;BME280;61643;49.564;17.412;2022-08-25T06:49:40;98443.66;;;22.65;78.10
73429;BME280;61643;49.564;17.412;2022-08-25T06:52:07;98441.91;;;22.69;78.59
73429;BME280;61643;49.564;17.412;2022-08-25T06:54:33;98441.22;;;22.72;78.33
73429;BME280;61643;49.564;17.412;2022-08-25T06:56:58;98440.31;;;22.60;78.87
73429;BME280;61643;49.564;17.412;2022-08-25T06:59:25;98432.47;;;22.41;78.47
73429;BME280;61643;49.564;17.412;2022-08-25T07:01:50;98432.94;;;22.43;80.48
73429;BME280;61643;49.564;17.412;2022-08-25T07:04:16;98433.75;;;22.43;80.65
73429;BME280;61643;49.564;17.412;2022-08-25T07:06:41;98434.00;;;22.68;77.48
73429;BME280;61643;49.564;17.412;2022-08-25T07:09:08;98441.88;;;22.78;75.28
73429;BME280;61643;49.564;17.412;2022-08-25T07:11:34;98445.84;;;22.89;75.26
73429;BME280;61643;49.564;17.412;2022-08-25T07:14:01;98443.13;;;22.80;77.36
73429;BME280;61643;49.564;17.412;2022-08-25T07:16:27;98440.53;;;22.84;76.40
73429;BME280;61643;49.564;17.412;2022-08-25T07:18:53;98440.09;;;22.73;76.45
73429;BME280;61643;49.564;17.412;2022-08-25T07:21:22;98434.44;;;22.78;75.81
73429;BME280;61643;49.564;17.412;2022-08-25T07:23:47;98432.78;;;22.86;75.95
73429;BME280;61643;49.564;17.412;2022-08-25T07:26:17;98430.31;;;22.93;75.69
73429;BME280;61643;49.564;17.412;2022-08-25T07:28:42;98433.13;;;23.05;76.39
73429;BME280;61643;49.564;17.412;2022-08-25T07:31:08;98433.63;;;23.07;74.65
73429;BME280;61643;49.564;17.412;2022-08-25T07:33:34;98429.25;;;23.06;74.83
73429;BME280;61643;49.564;17.412;2022-08-25T07:36:00;98427.03;;;22.99;76.85
73429;BME280;61643;49.564;17.412;2022-08-25T07:38:26;98422.88;;;22.93;75.62
73429;BME280;61643;49.564;17.412;2022-08-25T07:40:51;98431.44;;;22.92;76.17
73429;BME280;61643;49.564;17.412;2022-08-25T07:43:22;98424.69;;;22.89;76.26
73429;BME280;61643;49.564;17.412;2022-08-25T07:45:47;98428.97;;;22.99;76.97
73429;BME280;61643;49.564;17.412;2022-08-25T07:48:14;98427.88;;;23.21;74.69
73429;BME280;61643;49.564;17.412;2022-08-25T07:50:43;98429.81;;;23.20;73.74
73429;BME280;61643;49.564;17.412;2022-08-25T07:53:10;98431.03;;;23.11;74.55
73429;BME280;61643;49.564;17.412;2022-08-25T07:55:36;98424.97;;;22.96;75.93
73429;BME280;61643;49.564;17.412;2022-08-25T07:58:04;98426.13;;;22.87;75.66
73429;BME280;61643;49.564;17.412;2022-08-25T08:00:32;98430.31;;;22.93;73.76
73429;BME280;61643;49.564;17.412;2022-08-25T08:03:00;98430.13;;;22.98;75.48
73429;BME280;61643;49.564;17.412;2022-08-25T08:05:27;98425.84;;;23.09;75.54
73429;BME280;61643;49.564;17.412;2022-08-25T08:07:53;98436.22;;;23.03;76.15
73429;BME280;61643;49.564;17.412;2022-08-25T08:10:19;98438.09;;;23.12;74.57
73429;BME280;61643;49.564;17.412;2022-08-25T08:12:45;98435.16;;;22.96;75.74
73429;BME280;61643;49.564;17.412;2022-08-25T08:15:10;98441.06;;;23.07;76.44
73429;BME280;61643;49.564;17.412;2022-08-25T08:17:37;98438.09;;;23.12;75.66
73429;BME280;61643;49.564;17.412;2022-08-25T08:20:04;98439.38;;;23.14;75.02
73429;BME280;61643;49.564;17.412;2022-08-25T08:22:33;98436.09;;;23.21;77.06
73429;BME280;61643;49.564;17.412;2022-08-25T08:24:59;98441.88;;;23.28;76.96
73429;BME280;61643;49.564;17.412;2022-08-25T08:27:25;98430.66;;;23.41;75.88
73429;BME280;61643;49.564;17.412;2022-08-25T08:29:50;98431.59;;;23.45;75.65
73429;BME280;61643;49.564;17.412;2022-08-25T08:32:17;98425.16;;;23.62;74.36
73429;BME280;61643;49.564;17.412;2022-08-25T08:34:43;98432.25;;;23.63;74.05
73429;BME280;61643;49.564;17.412;2022-08-25T08:37:10;98429.56;;;23.75;72.14
73429;BME280;61643;49.564;17.412;2022-08-25T08:39:36;98425.28;;;23.66;72.57
73429;BME280;61643;49.564;17.412;2022-08-25T08:42:16;98436.59;;;23.64;72.58
73429;BME280;61643;49.564;17.412;2022-08-25T08:50:29;98441.19;;;23.93;71.84
73429;BME280;61643;49.564;17.412;2022-08-25T08:53:20;98433.28;;;23.91;72.85
73429;BME280;61643;49.564;17.412;2022-08-25T08:55:52;98431.81;;;23.94;73.37
73429;BME280;61643;49.564;17.412;2022-08-25T08:58:55;98432.31;;;24.08;72.54
73429;BME280;61643;49.564;17.412;2022-08-25T09:06:54;98432.50;;;24.36;70.23
73429;BME280;61643;49.564;17.412;2022-08-25T09:09:28;98438.81;;;24.36;70.07
73429;BME280;61643;49.564;17.412;2022-08-25T09:25:27;98424.69;;;24.26;71.98
73429;BME280;61643;49.564;17.412;2022-08-25T09:28:24;98417.38;;;24.30;71.85
73429;BME280;61643;49.564;17.412;2022-08-25T09:30:58;98425.72;;;24.21;72.41
73429;BME280;61643;49.564;17.412;2022-08-25T09:33:26;98421.84;;;24.22;72.42
73429;BME280;61643;49.564;17.412;2022-08-25T09:35:53;98424.50;;;24.31;70.95
73429;BME280;61643;49.564;17.412;2022-08-25T09:38:19;98422.63;;;24.23;69.36
73429;BME280;61643;49.564;17.412;2022-08-25T09:40:47;98420.22;;;24.21;69.93
73429;BME280;61643;49.564;17.412;2022-08-25T09:43:19;98409.34;;;24.25;70.21
73429;BME280;61643;49.564;17.412;2022-08-25T09:46:12;98421.97;;;24.38;72.42
73429;BME280;61643;49.564;17.412;2022-08-25T09:48:47;98420.34;;;24.49;69.58
73429;BME280;61643;49.564;17.412;2022-08-25T09:51:26;98413.94;;;24.57;68.85
73429;BME280;61643;49.564;17.412;2022-08-25T09:54:02;98403.41;;;24.59;69.20
73429;BME280;61643;49.564;17.412;2022-08-25T09:56:30;98406.84;;;24.80;70.09
73429;BME280;61643;49.564;17.412;2022-08-25T09:59:29;98412.56;;;24.75;68.24
73429;BME280;61643;49.564;17.412;2022-08-25T10:01:58;98400.19;;;24.69;68.49
73429;BME280;61643;49.564;17.412;2022-08-25T10:04:29;98398.38;;;24.73;67.93
73429;BME280;61643;49.564;17.412;2022-08-25T10:07:00;98400.88;;;24.78;68.22
73429;BME280;61643;49.564;17.412;2022-08-25T10:09:33;98390.22;;;24.89;67.19
73429;BME280;61643;49.564;17.412;2022-08-25T10:12:00;98391.84;;;24.90;67.42
73429;BME280;61643;49.564;17.412;2022-08-25T10:14:34;98390.66;;;24.79;67.12
73429;BME280;61643;49.564;17.412;2022-08-25T10:17:22;98388.97;;;24.86;68.31
73429;BME280;61643;49.564;17.412;2022-08-25T10:19:54;98389.66;;;24.95;67.16
73429;BME280;61643;49.564;17.412;2022-08-25T10:22:21;98380.91;;;25.06;67.91
73429;BME280;61643;49.564;17.412;2022-08-25T10:24:47;98373.47;;;25.06;66.80
73429;BME280;61643;49.564;17.412;2022-08-25T10:27:24;98371.25;;;25.12;67.11
73429;BME280;61643;49.564;17.412;2022-08-25T10:35:18;98369.66;;;25.11;67.60
73429;BME280;61643;49.564;17.412;2022-08-25T10:38:07;98376.94;;;24.91;66.89
73429;BME280;61643;49.564;17.412;2022-08-25T10:40:52;98377.50;;;24.84;67.42
73429;BME280;61643;49.564;17.412;2022-08-25T10:49:06;98356.84;;;25.03;69.21
73429;BME280;61643;49.564;17.412;2022-08-25T10:51:43;98350.03;;;25.00;69.13
73429;BME280;61643;49.564;17.412;2022-08-25T11:00:21;98341.44;;;25.14;67.88
73429;BME280;61643;49.564;17.412;2022-08-25T11:03:03;98338.91;;;25.09;67.88
73429;BME280;61643;49.564;17.412;2022-08-25T11:05:32;98337.03;;;25.25;67.59
73429;BME280;61643;49.564;17.412;2022-08-25T11:08:33;98331.81;;;25.35;68.83
73429;BME280;61643;49.564;17.412;2022-08-25T11:11:04;98327.03;;;25.60;67.31
73429;BME280;61643;49.564;17.412;2022-08-25T11:13:45;98335.59;;;25.71;65.40
73429;BME280;61643;49.564;17.412;2022-08-25T11:16:15;98329.41;;;25.62;64.98
73429;BME280;61643;49.564;17.412;2022-08-25T11:18:55;98331.22;;;25.70;64.67
73429;BME280;61643;49.564;17.412;2022-08-25T11:21:30;98320.56;;;25.68;65.69
73429;BME280;61643;49.564;17.412;2022-08-25T11:24:48;98318.19;;;25.82;64.09
73429;BME280;61643;49.564;17.412;2022-08-25T11:26:50;98318.88;;;25.79;64.68
73429;BME280;61643;49.564;17.412;2022-08-25T11:29:19;98308.91;;;25.90;64.74
73429;BME280;61643;49.564;17.412;2022-08-25T11:31:49;98313.19;;;25.88;64.77
73429;BME280;61643;49.564;17.412;2022-08-25T11:34:15;98310.19;;;25.93;64.20
73429;BME280;61643;49.564;17.412;2022-08-25T11:36:50;98305.28;;;25.86;63.56
73429;BME280;61643;49.564;17.412;2022-08-25T11:39:38;98309.06;;;25.66;64.44
73429;BME280;61643;49.564;17.412;2022-08-25T11:42:16;98306.22;;;25.63;64.39
73429;BME280;61643;49.564;17.412;2022-08-25T11:50:35;98306.16;;;25.90;61.78
73429;BME280;61643;49.564;17.412;2022-08-25T11:55:52;98305.44;;;25.78;63.07
73429;BME280;61643;49.564;17.412;2022-08-25T11:58:32;98302.41;;;25.83;62.23
73429;BME280;61643;49.564;17.412;2022-08-25T12:01:00;98302.31;;;25.79;61.42
73429;BME280;61643;49.564;17.412;2022-08-25T12:06:21;98303.75;;;26.05;63.08
73429;BME280;61643;49.564;17.412;2022-08-25T12:11:51;98295.97;;;26.22;61.82
73429;BME280;61643;49.564;17.412;2022-08-25T12:30:27;98283.94;;;26.15;61.78
73429;BME280;61643;49.564;17.412;2022-08-25T12:36:07;98273.88;;;26.38;59.58
73429;BME280;61643;49.564;17.412;2022-08-25T12:38:45;98277.50;;;26.42;60.72
73429;BME280;61643;49.564;17.412;2022-08-25T12:41:15;98276.91;;;26.33;58.85
73429;BME280;61643;49.564;17.412;2022-08-25T12:43:47;98270.75;;;26.39;60.31
73429;BME280;61643;49.564;17.412;2022-08-25T12:54:19;98267.56;;;26.72;57.88
73429;BME280;61643;49.564;17.412;2022-08-25T12:56:51;98272.09;;;26.80;56.90
73429;BME280;61643;49.564;17.412;2022-08-25T12:59:39;98257.91;;;26.82;56.69
73429;BME280;61643;49.564;17.412;2022-08-25T13:05:04;98267.34;;;26.81;58.84
73429;BME280;61643;49.564;17.412;2022-08-25T13:07:54;98269.19;;;26.92;58.00
73429;BME280;61643;49.564;17.412;2022-08-25T13:16:23;98259.91;;;27.01;57.89
73429;BME280;61643;49.564;17.412;2022-08-25T13:18:51;98258.38;;;27.03;57.40
73429;BME280;61643;49.564;17.412;2022-08-25T13:21:22;98265.22;;;27.09;57.15
73429;BME280;61643;49.564;17.412;2022-08-25T13:23:52;98263.38;;;27.17;56.84
73429;BME280;61643;49.564;17.412;2022-08-25T13:26:27;98251.91;;;27.15;55.94
73429;BME280;61643;49.564;17.412;2022-08-25T13:29:10;98250.59;;;27.09;55.95
73429;BME280;61643;49.564;17.412;2022-08-25T13:31:39;98253.50;;;27.16;57.93
73429;BME280;61643;49.564;17.412;2022-08-25T13:34:18;98248.84;;;27.20;56.60
73429;BME280;61643;49.564;17.412;2022-08-25T13:36:45;98253.50;;;26.97;57.16
73429;BME280;61643;49.564;17.412;2022-08-25T13:39:29;98259.16;;;27.04;59.24
73429;BME280;61643;49.564;17.412;2022-08-25T13:41:58;98252.09;;;27.06;58.20
73429;BME280;61643;49.564;17.412;2022-08-25T13:44:25;98255.81;;;27.14;57.98
73429;BME280;61643;49.564;17.412;2022-08-25T13:47:14;98247.41;;;26.87;59.66
73429;BME280;61643;49.564;17.412;2022-08-25T13:49:43;98245.47;;;26.72;59.66
73429;BME280;61643;49.564;17.412;2022-08-25T13:52:24;98240.13;;;26.64;61.14
73429;BME280;61643;49.564;17.412;2022-08-25T13:54:50;98246.97;;;26.51;61.17
73429;BME280;61643;49.564;17.412;2022-08-25T13:57:21;98238.13;;;26.45;61.43
73429;BME280;61643;49.564;17.412;2022-08-25T14:00:00;98239.06;;;26.68;61.01
73429;BME280;61643;49.564;17.412;2022-08-25T14:02:41;98242.41;;;26.77;59.97
73429;BME280;61643;49.564;17.412;2022-08-25T14:05:07;98236.34;;;26.87;59.36
73429;BME280;61643;49.564;17.412;2022-08-25T14:07:32;98225.66;;;26.86;59.79
73429;BME280;61643;49.564;17.412;2022-08-25T14:10:30;98226.94;;;26.92;60.02
73429;BME280;61643;49.564;17.412;2022-08-25T14:15:36;98225.06;;;26.77;60.49
73429;BME280;61643;49.564;17.412;2022-08-25T14:18:11;98225.81;;;26.77;61.35
73429;BME280;61643;49.564;17.412;2022-08-25T14:20:43;98222.16;;;26.89;60.85
73429;BME280;61643;49.564;17.412;2022-08-25T14:23:12;98220.28;;;26.93;60.99
73429;BME280;61643;49.564;17.412;2022-08-25T14:25:39;98214.69;;;26.89;58.88
73429;BME280;61643;49.564;17.412;2022-08-25T14:28:09;98207.84;;;26.83;60.22
73429;BME280;61643;49.564;17.412;2022-08-25T14:30:39;98207.75;;;26.80;58.75
73429;BME280;61643;49.564;17.412;2022-08-25T14:33:05;98205.25;;;26.90;57.58
73429;BME280;61643;49.564;17.412;2022-08-25T14:35:31;98195.63;;;26.84;57.81
73429;BME280;61643;49.564;17.412;2022-08-25T14:37:56;98194.53;;;26.89;57.81
73429;BME280;61643;49.564;17.412;2022-08-25T14:40:22;98196.22;;;26.94;58.68
73429;BME280;61643;49.564;17.412;2022-08-25T14:42:48;98201.03;;;26.81;59.72